This is the latest recevied weather packets stored in our database for station/object K3HM. If no packets are shown the sender has not sent any weather packets the latest 10 day(s).
| Time | Temp. | Humidity | Pressure | Rain* | Wind** | Luminosity | Snow |
|---|---|---|---|---|---|---|---|
| 1776966433 | 21.11° C | 57% | 1016.9 hPa | 0 mm | - | 303 W/m² | - |
| 1776966130 | 22.22° C | 54% | 1017 hPa | 0 mm | - | 193 W/m² | - |
| 1776965825 | 21.67° C | 55% | 1016.9 hPa | 0 mm | - | 779 W/m² | - |
| 1776965523 | 20.56° C | 57% | 1017 hPa | 0 mm | - | 219 W/m² | - |
| 1776965223 | 20.56° C | 57% | 1017.1 hPa | 0 mm | - | 870 W/m² | - |
| 1776964917 | 20.56° C | 59% | 1017.2 hPa | 0 mm | - | 253 W/m² | - |
| 1776964616 | 21.67° C | 56% | 1017.1 hPa | 0 mm | - | 205 W/m² | - |
| 1776964316 | 21.11° C | 57% | 1017.2 hPa | 0 mm | - | 803 W/m² | - |
| 1776964011 | 21.11° C | 57% | 1017.3 hPa | 0 mm | - | 876 W/m² | - |
| 1776963710 | 20.56° C | 58% | 1017.3 hPa | 0 mm | - | 257 W/m² | - |
| 1776963405 | 21.11° C | 62% | 1017.7 hPa | 0 mm | - | 783 W/m² | - |
| 1776963103 | 20.56° C | 61% | 1017.6 hPa | 0 mm | - | 782 W/m² | - |
| 1776962799 | 21.11° C | 58% | 1017.7 hPa | 0 mm | - | 265 W/m² | - |
| 1776962499 | 21.11° C | 58% | 1017.8 hPa | 0 mm | - | 317 W/m² | - |
| 1776962198 | 20° C | 60% | 1017.7 hPa | 0 mm | - | 771 W/m² | - |
| 1776961894 | 20.56° C | 59% | 1017.7 hPa | 0 mm | - | 821 W/m² | - |
| 1776961592 | 20.56° C | 60% | 1017.9 hPa | 0 mm | - | 821 W/m² | - |
| 1776961291 | 20° C | 63% | 1017.9 hPa | 0 mm | - | 851 W/m² | - |
| 1776960986 | 19.44° C | 64% | 1017.9 hPa | 0 mm | - | 800 W/m² | - |
| 1776960682 | 20° C | 63% | 1017.9 hPa | 0 mm | - | 213 W/m² | - |
| 1776960376 | 20.56° C | 61% | 1018.1 hPa | 0 mm | - | 323 W/m² | - |
| 1776960075 | 20° C | 62% | 1017.9 hPa | 0 mm | - | 736 W/m² | - |
| 1776959772 | 19.44° C | 65% | 1018 hPa | 0 mm | - | 731 W/m² | - |
| 1776959469 | 19.44° C | 66% | 1018.3 hPa | 0 mm | - | 694 W/m² | - |
| 1776959165 | 19.44° C | 66% | 1018.3 hPa | 0 mm | - | 690 W/m² | - |
* Rain latest hour (hover to see other rain measurements)
** Current wind speed in m/s (hover to see current wind gust speed)